Time;durP1;ratioP1;P1;durP2;ratioP2;P2;SDS_P1;SDS_P2;PMS_P1;PMS_P2;Temp;Humidity;BMP_temperature;BMP_pressure;BME280_temperature;BME280_humidity;BME280_pressure;Samples;Min_cycle;Max_cycle;Signal;HPM_P1;HPM_P2
2023/10/26 00:01:29;;;;;;;5.30;2.83;;;20.00;65.40;;;;;;6273585;28;20368;-62
2023/10/26 00:04:30;;;;;;;4.72;2.90;;;20.00;65.40;;;;;;6276913;28;20051;-62
2023/10/26 00:07:31;;;;;;;4.85;3.03;;;20.00;65.50;;;;;;6280256;28;20451;-62
2023/10/26 00:10:32;;;;;;;4.85;2.83;;;20.00;65.40;;;;;;6274219;28;20048;-62
2023/10/26 00:13:32;;;;;;;4.38;3.13;;;20.00;65.40;;;;;;6280786;28;20033;-62
2023/10/26 00:16:33;;;;;;;4.10;2.50;;;20.00;65.40;;;;;;6276491;28;20471;-62
2023/10/26 00:19:35;;;;;;;4.88;2.92;;;20.00;65.50;;;;;;6274102;28;20232;-62
2023/10/26 00:22:35;;;;;;;4.70;2.70;;;20.00;65.50;;;;;;6270513;28;20400;-61
2023/10/26 00:25:36;;;;;;;4.82;2.83;;;20.00;65.40;;;;;;6277215;28;20059;-61
2023/10/26 00:28:37;;;;;;;4.32;2.90;;;20.00;65.40;;;;;;6268644;28;20031;-62
2023/10/26 00:31:37;;;;;;;5.55;2.60;;;20.00;65.40;;;;;;6269279;28;20134;-62
2023/10/26 00:34:38;;;;;;;5.18;2.60;;;20.00;65.40;;;;;;6285256;28;20508;-62
2023/10/26 00:37:39;;;;;;;3.30;2.42;;;20.00;65.40;;;;;;6271065;28;20020;-62
2023/10/26 00:40:40;;;;;;;4.65;2.92;;;20.00;65.30;;;;;;6282653;28;20394;-62
2023/10/26 00:43:40;;;;;;;4.40;2.47;;;20.00;65.30;;;;;;6277901;28;20025;-62
2023/10/26 00:46:41;;;;;;;4.35;2.38;;;20.00;65.40;;;;;;6278914;28;20025;-62
2023/10/26 00:49:42;;;;;;;4.32;2.58;;;20.00;65.40;;;;;;6281159;28;20036;-61
2023/10/26 00:52:43;;;;;;;3.92;2.35;;;20.00;65.50;;;;;;6268826;28;20027;-62
2023/10/26 00:55:49;;;;;;;3.38;2.33;;;20.00;65.30;;;;;;6282235;28;20017;-61
2023/10/26 00:58:50;;;;;;;3.63;2.60;;;20.00;65.40;;;;;;6277264;28;20017;-61
2023/10/26 01:01:51;;;;;;;5.05;2.75;;;20.00;65.50;;;;;;6276166;28;20051;-62
2023/10/26 01:04:51;;;;;;;4.20;2.55;;;20.00;65.50;;;;;;6279306;28;20451;-62
2023/10/26 01:07:52;;;;;;;3.38;2.38;;;20.00;65.40;;;;;;6275084;28;20100;-62
2023/10/26 01:10:52;;;;;;;4.40;2.42;;;20.00;65.50;;;;;;6275676;28;20045;-62
2023/10/26 01:13:53;;;;;;;4.15;2.35;;;20.00;65.50;;;;;;6272367;28;20470;-61
2023/10/26 01:16:55;;;;;;;4.00;2.45;;;20.00;65.60;;;;;;6274418;28;20021;-62
2023/10/26 01:19:55;;;;;;;3.17;2.40;;;20.00;65.50;;;;;;6269774;28;20022;-62
2023/10/26 01:22:56;;;;;;;3.90;2.47;;;20.00;65.50;;;;;;6279848;28;20113;-62
2023/10/26 01:25:58;;;;;;;3.25;2.42;;;20.00;65.50;;;;;;6275886;28;20036;-62
2023/10/26 01:29:02;;;;;;;3.80;2.50;;;20.00;65.40;;;;;;6273309;28;20394;-60
2023/10/26 01:32:03;;;;;;;3.10;2.35;;;20.00;65.50;;;;;;6272252;28;20123;-62
2023/10/26 01:35:05;;;;;;;3.33;2.40;;;20.00;65.50;;;;;;6274024;28;20411;-61
2023/10/26 01:38:05;;;;;;;4.25;2.47;;;20.00;65.40;;;;;;6269458;28;20071;-62
2023/10/26 01:41:06;;;;;;;5.40;2.70;;;20.00;65.40;;;;;;6281055;28;20449;-62
2023/10/26 01:44:07;;;;;;;3.35;2.22;;;20.00;65.50;;;;;;6271748;28;20509;-62
2023/10/26 01:47:08;;;;;;;3.50;2.35;;;20.00;65.50;;;;;;6275203;28;20072;-62
2023/10/26 01:50:09;;;;;;;4.20;2.30;;;20.00;65.40;;;;;;6272217;28;20396;-61
2023/10/26 01:53:10;;;;;;;3.38;2.40;;;20.00;65.40;;;;;;6269012;28;20017;-60
2023/10/26 01:56:10;;;;;;;3.15;2.20;;;20.00;65.40;;;;;;6275002;28;20526;-61
2023/10/26 01:59:11;;;;;;;2.85;2.10;;;20.00;65.50;;;;;;6265561;28;20372;-61
2023/10/26 02:02:11;;;;;;;3.75;2.25;;;20.00;65.50;;;;;;6278274;28;20442;-61
2023/10/26 02:05:12;;;;;;;2.78;1.75;;;20.00;65.60;;;;;;6268918;28;20430;-62
2023/10/26 02:08:13;;;;;;;3.60;2.17;;;20.00;65.40;;;;;;6271391;28;20569;-61
2023/10/26 02:11:13;;;;;;;3.35;2.00;;;20.00;65.50;;;;;;6276571;28;20052;-61
2023/10/26 02:14:14;;;;;;;3.05;2.20;;;20.00;65.60;;;;;;6280403;28;20488;-61
2023/10/26 02:17:15;;;;;;;2.38;1.75;;;20.00;65.50;;;;;;6276145;28;20028;-62
2023/10/26 02:24:12;;;;;;;3.60;1.90;;;20.00;65.50;;;;;;6262283;28;20118;-61
2023/10/26 02:27:13;;;;;;;2.58;2.03;;;20.00;65.60;;;;;;6274538;28;20437;-62
2023/10/26 02:30:14;;;;;;;2.85;2.17;;;20.00;65.50;;;;;;6273806;28;20029;-61
2023/10/26 02:33:14;;;;;;;3.30;1.90;;;20.00;65.60;;;;;;6273187;28;20029;-62
2023/10/26 02:36:15;;;;;;;3.83;2.10;;;20.00;65.60;;;;;;6273126;28;20420;-62
2023/10/26 02:39:16;;;;;;;2.63;1.80;;;20.00;65.50;;;;;;6271787;28;20053;-62
2023/10/26 02:42:16;;;;;;;3.03;2.20;;;20.00;65.50;;;;;;6272402;28;20102;-61
2023/10/26 02:45:17;;;;;;;3.63;2.00;;;20.00;65.50;;;;;;6265947;28;20029;-62
2023/10/26 02:48:17;;;;;;;3.40;2.00;;;20.00;65.50;;;;;;6273639;28;20060;-62
2023/10/26 02:51:18;;;;;;;4.22;2.22;;;20.00;65.50;;;;;;6262085;28;20052;-61
2023/10/26 02:54:19;;;;;;;4.05;2.10;;;20.00;65.40;;;;;;6271999;28;20400;-60
2023/10/26 02:57:20;;;;;;;2.90;2.00;;;20.00;65.40;;;;;;6274115;28;20380;-62
2023/10/26 03:00:20;;;;;;;4.22;1.95;;;20.00;65.40;;;;;;6267464;28;20268;-62
2023/10/26 03:03:22;;;;;;;2.75;1.92;;;20.00;65.60;;;;;;6277856;28;20024;-62
2023/10/26 03:06:22;;;;;;;2.33;2.00;;;20.00;65.60;;;;;;6277297;28;20028;-62
2023/10/26 03:09:23;;;;;;;4.18;2.25;;;20.00;65.50;;;;;;6273634;28;20533;-62
2023/10/26 03:12:23;;;;;;;3.53;2.17;;;20.00;65.60;;;;;;6282333;28;20759;-62
2023/10/26 03:15:24;;;;;;;2.83;2.08;;;20.00;65.50;;;;;;6272659;28;20029;-62
2023/10/26 03:18:25;;;;;;;4.03;2.20;;;20.00;65.50;;;;;;6275190;28;20076;-62
2023/10/26 03:21:25;;;;;;;3.97;1.90;;;20.00;65.60;;;;;;6268402;28;20147;-61
2023/10/26 03:24:26;;;;;;;4.72;2.05;;;20.00;65.60;;;;;;6273552;28;20044;-61
2023/10/26 03:27:27;;;;;;;3.45;2.20;;;20.00;65.70;;;;;;6272247;28;20092;-61
2023/10/26 03:30:27;;;;;;;2.83;1.92;;;20.00;65.60;;;;;;6272888;28;20025;-62
2023/10/26 03:33:28;;;;;;;3.28;2.00;;;19.90;65.50;;;;;;6274237;28;20170;-62
2023/10/26 03:36:29;;;;;;;2.58;1.90;;;20.00;65.50;;;;;;6270786;28;20028;-62
2023/10/26 03:39:30;;;;;;;3.00;1.80;;;20.00;65.50;;;;;;6275144;28;20031;-62
2023/10/26 03:42:30;;;;;;;4.65;2.03;;;20.00;65.60;;;;;;6283083;28;20023;-60
2023/10/26 03:45:31;;;;;;;2.08;1.80;;;20.00;65.50;;;;;;6277072;28;20442;-61
2023/10/26 03:48:34;;;;;;;2.83;2.20;;;20.00;65.50;;;;;;6282692;28;20072;-61
2023/10/26 03:51:34;;;;;;;2.90;1.67;;;19.90;65.30;;;;;;6270762;28;20031;-62
2023/10/26 03:54:35;;;;;;;2.10;1.60;;;19.90;65.40;;;;;;6277013;28;20399;-61
2023/10/26 03:57:35;;;;;;;3.10;2.10;;;20.00;65.80;;;;;;6277599;28;20025;-62
2023/10/26 04:00:42;;;;;;;2.38;1.75;;;20.00;65.50;;;;;;6279206;28;20020;-62
2023/10/26 04:03:43;;;;;;;2.30;1.65;;;20.00;65.60;;;;;;6279626;28;20056;-61
2023/10/26 04:06:45;;;;;;;2.33;1.70;;;19.90;66.30;;;;;;6276593;28;20017;-61
2023/10/26 04:09:45;;;;;;;4.50;2.10;;;19.90;65.30;;;;;;6274624;28;20016;-61
2023/10/26 04:12:46;;;;;;;2.30;1.88;;;19.90;65.40;;;;;;6281802;28;20133;-62
2023/10/26 04:15:48;;;;;;;3.15;1.90;;;19.90;65.30;;;;;;6278116;28;20075;-60
2023/10/26 04:18:49;;;;;;;2.35;1.50;;;19.90;65.40;;;;;;6281141;28;20025;-61
2023/10/26 04:21:50;;;;;;;2.38;1.90;;;19.90;65.40;;;;;;6277103;28;20506;-61
2023/10/26 04:24:50;;;;;;;2.63;1.67;;;20.00;65.40;;;;;;6279025;28;20120;-62
2023/10/26 04:27:51;;;;;;;3.65;2.00;;;20.00;65.20;;;;;;6278328;28;20032;-61
2023/10/26 04:30:53;;;;;;;2.40;1.83;;;19.90;65.20;;;;;;6275368;28;20096;-62
2023/10/26 04:33:53;;;;;;;2.63;1.50;;;19.90;65.30;;;;;;6275786;28;20546;-61
2023/10/26 04:36:54;;;;;;;1.77;1.38;;;20.00;65.20;;;;;;6281200;28;20013;-61
2023/10/26 04:39:54;;;;;;;2.90;1.83;;;20.00;65.20;;;;;;6277680;28;20444;-61
2023/10/26 04:42:55;;;;;;;2.65;1.60;;;20.00;65.10;;;;;;6276079;28;20032;-61
2023/10/26 04:45:56;;;;;;;2.90;1.80;;;20.00;65.20;;;;;;6283650;28;20020;-62
2023/10/26 04:48:56;;;;;;;3.30;1.77;;;19.90;65.10;;;;;;6272321;28;20036;-62
2023/10/26 04:51:57;;;;;;;2.72;1.80;;;20.00;65.20;;;;;;6263069;28;20036;-61
2023/10/26 04:54:57;;;;;;;2.95;1.50;;;20.00;65.10;;;;;;6272855;28;20078;-62
2023/10/26 04:57:59;;;;;;;2.42;1.85;;;20.00;65.20;;;;;;6281657;28;20023;-61
2023/10/26 05:01:00;;;;;;;2.65;1.73;;;19.90;65.00;;;;;;6267519;28;20063;-62
2023/10/26 05:04:00;;;;;;;1.73;1.33;;;20.00;65.20;;;;;;6278292;28;20041;-61
2023/10/26 05:07:01;;;;;;;2.42;1.83;;;20.00;65.20;;;;;;6276906;28;20020;-61
2023/10/26 05:10:02;;;;;;;2.42;1.80;;;20.00;65.20;;;;;;6278394;28;20120;-62
2023/10/26 05:13:03;;;;;;;2.28;1.63;;;20.00;65.10;;;;;;6272393;28;20069;-62
2023/10/26 05:16:04;;;;;;;2.20;1.45;;;20.00;65.30;;;;;;6278774;28;20035;-62
2023/10/26 05:19:05;;;;;;;2.10;1.50;;;20.00;65.40;;;;;;6278196;28;20438;-61
2023/10/26 05:22:05;;;;;;;1.98;1.50;;;20.00;65.50;;;;;;6266869;28;20017;-62
2023/10/26 05:25:08;;;;;;;2.65;1.38;;;20.00;65.30;;;;;;6272023;28;20455;-61
2023/10/26 05:28:08;;;;;;;1.95;1.50;;;20.00;65.40;;;;;;6275703;28;20025;-61
2023/10/26 05:31:09;;;;;;;2.70;1.92;;;20.00;65.40;;;;;;6257585;28;20488;-61
2023/10/26 05:34:09;;;;;;;2.05;1.58;;;20.00;65.30;;;;;;6266757;28;20430;-62
2023/10/26 05:37:10;;;;;;;3.33;1.70;;;20.00;65.30;;;;;;6276899;28;20021;-62
2023/10/26 05:40:11;;;;;;;2.70;1.65;;;20.00;65.20;;;;;;6280472;28;20033;-62
2023/10/26 05:43:12;;;;;;;3.28;1.75;;;20.00;65.20;;;;;;6273696;28;20154;-63
2023/10/26 05:46:13;;;;;;;2.30;1.70;;;20.00;65.30;;;;;;6275770;28;20037;-62
2023/10/26 05:49:13;;;;;;;1.80;1.58;;;20.00;65.20;;;;;;6281006;28;20055;-62
2023/10/26 05:52:14;;;;;;;1.65;1.38;;;20.00;65.10;;;;;;6269696;28;20104;-62
2023/10/26 05:55:16;;;;;;;1.85;1.48;;;20.00;65.00;;;;;;6269244;28;20029;-61
2023/10/26 05:58:17;;;;;;;4.13;1.55;;;20.00;65.10;;;;;;6263677;28;20739;-64
2023/10/26 06:01:17;;;;;;;3.10;1.80;;;20.00;65.20;;;;;;6276731;28;20075;-65
2023/10/26 06:04:18;;;;;;;10.52;1.83;;;20.00;65.70;;;;;;6279412;28;20089;-65
2023/10/26 06:07:19;;;;;;;109.35;4.80;;;20.10;65.60;;;;;;6286673;28;20047;-66
2023/10/26 06:10:19;;;;;;;170.70;10.02;;;20.10;66.10;;;;;;6288010;28;20044;-66
2023/10/26 06:13:20;;;;;;;106.95;4.97;;;20.10;65.80;;;;;;6275893;28;20026;-65
2023/10/26 06:16:21;;;;;;;83.60;5.20;;;20.20;65.40;;;;;;6275434;28;20013;-65
2023/10/26 06:19:21;;;;;;;106.60;5.93;;;20.20;66.00;;;;;;6266408;28;20027;-62
2023/10/26 06:22:22;;;;;;;66.47;4.30;;;20.20;65.70;;;;;;6266559;28;20083;-62
2023/10/26 06:25:25;;;;;;;55.97;4.65;;;20.20;65.80;;;;;;6265090;28;20576;-63
2023/10/26 06:28:26;;;;;;;70.47;5.85;;;20.10;66.00;;;;;;6266222;28;20060;-64
2023/10/26 06:31:27;;;;;;;44.40;4.53;;;20.10;64.80;;;;;;6266343;28;20025;-63
2023/10/26 06:34:29;;;;;;;50.92;4.70;;;20.10;65.20;;;;;;6266533;28;20025;-64
2023/10/26 06:37:30;;;;;;;37.60;4.45;;;20.10;64.60;;;;;;6266503;28;20470;-62
2023/10/26 06:40:30;;;;;;;38.92;3.92;;;20.00;63.20;;;;;;6265075;28;20025;-63
2023/10/26 06:43:31;;;;;;;25.85;4.10;;;20.00;62.50;;;;;;6266388;28;20582;-63
2023/10/26 06:46:32;;;;;;;26.92;4.43;;;20.00;61.80;;;;;;6260904;28;20391;-63
2023/10/26 06:49:32;;;;;;;10.13;3.65;;;20.00;61.40;;;;;;6274412;28;20025;-63
2023/10/26 06:52:34;;;;;;;15.43;3.55;;;19.90;60.70;;;;;;6271611;28;20021;-63
2023/10/26 06:55:34;;;;;;;11.50;3.13;;;19.90;60.70;;;;;;6273057;28;20169;-63
2023/10/26 06:58:35;;;;;;;15.23;3.50;;;19.90;60.70;;;;;;6267985;28;20692;-63
2023/10/26 07:01:38;;;;;;;15.13;3.38;;;19.90;60.80;;;;;;6275644;28;20027;-63
2023/10/26 07:04:39;;;;;;;7.70;3.10;;;19.90;61.90;;;;;;6273292;28;20460;-63
2023/10/26 07:07:39;;;;;;;9.55;3.08;;;19.90;61.30;;;;;;6273711;28;20029;-63
2023/10/26 07:10:40;;;;;;;11.57;3.45;;;20.00;61.60;;;;;;6274500;28;20044;-63
2023/10/26 07:13:41;;;;;;;15.75;2.90;;;20.00;61.70;;;;;;6281876;28;20087;-63
2023/10/26 07:16:41;;;;;;;8.60;2.70;;;20.00;62.00;;;;;;6282726;28;20079;-63
2023/10/26 07:19:42;;;;;;;13.43;3.00;;;20.00;62.10;;;;;;6281338;28;20017;-61
2023/10/26 07:22:43;;;;;;;11.18;3.08;;;20.00;62.40;;;;;;6279703;28;20032;-62
2023/10/26 07:25:43;;;;;;;12.35;3.15;;;20.00;62.40;;;;;;6275360;28;20217;-62
2023/10/26 07:28:44;;;;;;;9.70;2.60;;;20.00;62.70;;;;;;6284966;28;20102;-63
2023/10/26 07:31:46;;;;;;;14.63;3.50;;;20.00;62.80;;;;;;6272965;28;20440;-63
2023/10/26 07:34:47;;;;;;;9.52;2.85;;;20.00;62.80;;;;;;6270647;28;20135;-62
2023/10/26 07:37:48;;;;;;;11.23;2.55;;;20.00;62.80;;;;;;6279461;28;20116;-62
2023/10/26 07:40:50;;;;;;;11.05;2.90;;;20.00;62.80;;;;;;6269549;28;20021;-63
2023/10/26 07:43:51;;;;;;;10.88;2.70;;;20.00;62.90;;;;;;6283095;28;20025;-63
2023/10/26 07:46:52;;;;;;;18.95;3.75;;;20.00;63.00;;;;;;6279657;28;20104;-62
2023/10/26 07:49:52;;;;;;;8.85;2.20;;;20.00;63.10;;;;;;6284742;28;20029;-63
2023/10/26 07:52:53;;;;;;;4.60;2.22;;;20.00;63.20;;;;;;6275432;28;20025;-60
2023/10/26 07:55:57;;;;;;;7.45;2.35;;;20.00;63.30;;;;;;6272892;28;20017;-63
2023/10/26 07:58:58;;;;;;;5.10;2.38;;;20.00;63.40;;;;;;6271353;28;20021;-62
2023/10/26 08:01:59;;;;;;;6.40;2.53;;;20.00;63.30;;;;;;6285830;28;20120;-63
2023/10/26 08:05:00;;;;;;;4.97;2.60;;;20.00;63.50;;;;;;6275365;28;20399;-63
2023/10/26 08:08:01;;;;;;;5.40;2.40;;;20.00;63.40;;;;;;6270219;28;20044;-63
2023/10/26 08:11:08;;;;;;;4.60;2.13;;;20.00;63.60;;;;;;6275889;28;20068;-63
2023/10/26 08:14:09;;;;;;;8.65;2.20;;;20.00;63.60;;;;;;6273226;28;20486;-62
2023/10/26 08:17:10;;;;;;;4.20;2.03;;;20.00;63.50;;;;;;6276659;28;20029;-62
2023/10/26 08:20:10;;;;;;;2.67;2.00;;;20.00;63.60;;;;;;6279665;28;20100;-63
2023/10/26 08:23:11;;;;;;;7.07;2.50;;;20.00;63.70;;;;;;6276629;28;20035;-63
2023/10/26 08:26:12;;;;;;;5.07;2.40;;;20.00;63.70;;;;;;6278239;28;20050;-63
2023/10/26 08:29:13;;;;;;;4.88;2.13;;;20.00;64.60;;;;;;6276565;28;20036;-62
2023/10/26 08:32:13;;;;;;;5.47;2.33;;;20.00;63.80;;;;;;6273135;28;20447;-63
2023/10/26 08:35:14;;;;;;;8.15;2.88;;;20.00;63.90;;;;;;6277952;28;20063;-63
2023/10/26 08:38:15;;;;;;;3.05;1.70;;;20.00;63.80;;;;;;6275008;28;20021;-63
2023/10/26 08:41:16;;;;;;;6.97;2.35;;;20.00;63.90;;;;;;6276094;28;20033;-63
2023/10/26 08:44:17;;;;;;;8.23;2.67;;;20.00;64.00;;;;;;6276657;28;20075;-63
2023/10/26 08:47:21;;;;;;;3.45;2.05;;;20.00;63.90;;;;;;6274867;28;20028;-61
2023/10/26 08:50:23;;;;;;;4.80;2.10;;;20.00;63.90;;;;;;6270485;28;20025;-63
2023/10/26 08:53:25;;;;;;;3.58;2.00;;;20.00;64.00;;;;;;6273293;28;20107;-63
2023/10/26 08:56:26;;;;;;;7.72;2.05;;;20.00;64.10;;;;;;6278592;28;20085;-63
2023/10/26 08:59:27;;;;;;;4.68;1.98;;;20.00;64.10;;;;;;6277779;28;20028;-62
2023/10/26 09:02:28;;;;;;;3.28;1.92;;;20.00;64.90;;;;;;6281623;28;20028;-62
2023/10/26 09:05:28;;;;;;;4.47;2.00;;;20.00;64.10;;;;;;6281328;28;20021;-63
2023/10/26 09:08:30;;;;;;;3.20;2.22;;;20.00;64.10;;;;;;6279862;28;20099;-66
2023/10/26 09:11:31;;;;;;;5.35;1.83;;;20.00;64.10;;;;;;6279677;28;20607;-66
2023/10/26 09:14:31;;;;;;;5.28;2.03;;;20.00;64.10;;;;;;6273770;28;20039;-66
2023/10/26 09:17:33;;;;;;;3.53;1.77;;;20.00;64.10;;;;;;6280609;28;20073;-66
2023/10/26 09:20:34;;;;;;;4.43;2.10;;;20.00;65.00;;;;;;6278923;28;20397;-66
2023/10/26 09:23:37;;;;;;;3.42;1.92;;;20.00;64.00;;;;;;6275118;28;20471;-66
2023/10/26 09:26:40;;;;;;;3.30;2.08;;;20.00;64.10;;;;;;6279467;28;20555;-66
2023/10/26 09:29:42;;;;;;;3.10;2.17;;;20.00;64.10;;;;;;6265141;28;20035;-66
2023/10/26 09:32:43;;;;;;;3.17;1.67;;;20.00;64.10;;;;;;6273812;28;20029;-66
2023/10/26 09:35:45;;;;;;;13.90;2.10;;;20.00;64.10;;;;;;6278952;28;20055;-66
2023/10/26 09:38:47;;;;;;;9.00;2.20;;;20.00;64.00;;;;;;6282334;28;20027;-66
2023/10/26 09:41:49;;;;;;;10.05;2.30;;;20.00;65.00;;;;;;6273157;28;20025;-66
2023/10/26 09:44:51;;;;;;;4.60;1.95;;;20.00;64.30;;;;;;6271837;28;20403;-66
2023/10/26 09:47:51;;;;;;;2.45;1.92;;;20.00;64.50;;;;;;6279544;28;20099;-65
2023/10/26 09:50:52;;;;;;;3.92;1.95;;;20.00;64.50;;;;;;6275648;28;20082;-66
2023/10/26 09:53:54;;;;;;;7.15;1.92;;;20.00;64.50;;;;;;6280505;28;20025;-65
2023/10/26 09:57:03;;;;;;;6.95;2.20;;;20.00;64.50;;;;;;6266579;28;20075;-66
2023/10/26 10:00:10;;;;;;;3.50;2.00;;;20.00;64.50;;;;;;6281323;28;20394;-66
2023/10/26 10:03:11;;;;;;;5.22;2.03;;;20.00;64.50;;;;;;6282757;28;20025;-65
2023/10/26 10:06:47;;;;;;;2.88;1.75;;;20.00;64.60;;;;;;6278913;28;20029;-66
2023/10/26 10:10:07;;;;;;;8.52;2.30;;;20.00;64.70;;;;;;6277636;28;20099;-66
2023/10/26 10:13:07;;;;;;;6.53;1.92;;;20.00;64.70;;;;;;6278516;28;20420;-66
2023/10/26 10:16:43;;;;;;;4.78;2.50;;;20.00;64.70;;;;;;6270327;28;20013;-66
2023/10/26 10:19:48;;;;;;;5.40;1.53;;;20.00;64.70;;;;;;6288465;28;20056;-66
2023/10/26 10:22:50;;;;;;;7.47;2.35;;;20.00;64.70;;;;;;6275659;28;20078;-66
2023/10/26 10:25:52;;;;;;;3.97;2.20;;;20.00;64.60;;;;;;6268846;28;20036;-66
2023/10/26 10:28:53;;;;;;;4.43;1.85;;;20.00;64.70;;;;;;6273223;28;20017;-66
2023/10/26 10:31:54;;;;;;;6.68;1.92;;;20.00;64.60;;;;;;6272126;28;20048;-66
2023/10/26 10:34:57;;;;;;;7.88;2.03;;;20.00;64.70;;;;;;6287452;28;20032;-66
2023/10/26 10:41:15;;;;;;;3.88;1.80;;;20.00;64.70;;;;;;6271507;28;20085;-66
2023/10/26 10:44:17;;;;;;;5.63;1.50;;;20.00;64.70;;;;;;6280761;28;20021;-66
2023/10/26 10:47:18;;;;;;;2.60;1.70;;;20.00;64.70;;;;;;6277192;28;20032;-65
2023/10/26 10:50:20;;;;;;;5.13;1.55;;;20.00;64.70;;;;;;6280706;28;20056;-67
2023/10/26 10:53:21;;;;;;;3.25;1.70;;;20.00;64.70;;;;;;6280801;28;20024;-67
2023/10/26 10:56:23;;;;;;;3.17;1.67;;;20.00;64.70;;;;;;6281811;28;20439;-68
2023/10/26 10:59:30;;;;;;;9.32;1.48;;;20.00;64.50;;;;;;6285101;28;20025;-67
2023/10/26 11:02:30;;;;;;;7.55;2.20;;;20.00;64.50;;;;;;6277136;28;20750;-67
2023/10/26 11:05:37;;;;;;;12.75;2.00;;;20.00;64.40;;;;;;6280254;28;20025;-67
2023/10/26 11:08:38;;;;;;;8.20;1.98;;;20.00;64.40;;;;;;6282370;28;20056;-68
2023/10/26 11:11:39;;;;;;;11.23;2.08;;;20.00;64.40;;;;;;6284445;28;20045;-71
2023/10/26 11:14:50;;;;;;;16.15;2.47;;;20.00;64.70;;;;;;6282308;28;20055;-69
2023/10/26 11:17:51;;;;;;;17.48;2.55;;;20.10;64.60;;;;;;6281712;28;20096;-67
2023/10/26 11:20:52;;;;;;;18.77;2.63;;;20.10;64.60;;;;;;6283682;28;20025;-67
2023/10/26 11:23:52;;;;;;;11.63;2.10;;;20.10;64.40;;;;;;6276442;28;20025;-67
2023/10/26 11:27:09;;;;;;;19.38;2.45;;;20.10;64.50;;;;;;6279072;28;20028;-67
2023/10/26 11:30:11;;;;;;;13.80;2.40;;;20.00;64.30;;;;;;6285108;28;20055;-66
2023/10/26 11:33:35;;;;;;;17.15;2.35;;;20.00;64.40;;;;;;6276779;28;20032;-67
2023/10/26 11:36:44;;;;;;;23.25;2.05;;;20.00;64.50;;;;;;6283822;28;20025;-67
2023/10/26 11:39:49;;;;;;;10.90;2.22;;;20.10;64.70;;;;;;6284843;28;20020;-67
2023/10/26 11:42:50;;;;;;;13.18;2.78;;;20.10;64.80;;;;;;6284501;28;20020;-67
2023/10/26 11:45:50;;;;;;;9.25;2.30;;;20.10;64.80;;;;;;6277093;28;20598;-67
2023/10/26 11:48:54;;;;;;;17.88;2.38;;;20.10;64.80;;;;;;6284605;28;20032;-66
2023/10/26 11:51:54;;;;;;;18.08;2.67;;;20.10;64.60;;;;;;6284668;28;20028;-66
2023/10/26 11:54:58;;;;;;;5.57;2.17;;;20.10;64.70;;;;;;6280357;28;20021;-66
2023/10/26 11:58:00;;;;;;;14.82;2.20;;;20.10;64.60;;;;;;6285489;28;20017;-66
2023/10/26 12:01:01;;;;;;;6.47;1.98;;;20.10;64.60;;;;;;6289950;28;20027;-67
2023/10/26 12:04:02;;;;;;;20.08;2.15;;;20.10;64.60;;;;;;6279268;28;20024;-64
2023/10/26 12:07:02;;;;;;;4.85;1.83;;;20.10;64.70;;;;;;6283411;28;20028;-67
2023/10/26 12:10:04;;;;;;;15.98;2.70;;;20.10;64.70;;;;;;6278275;28;20039;-67
2023/10/26 12:13:04;;;;;;;11.25;2.83;;;20.10;64.70;;;;;;6280945;28;20144;-66
2023/10/26 12:16:05;;;;;;;5.72;2.60;;;20.00;64.30;;;;;;6276989;28;20013;-68
2023/10/26 12:19:06;;;;;;;11.00;3.70;;;20.00;63.50;;;;;;6276130;28;20028;-67
2023/10/26 12:22:06;;;;;;;5.63;3.45;;;20.00;63.10;;;;;;6284542;28;20044;-66
2023/10/26 12:25:08;;;;;;;10.27;2.67;;;20.00;62.20;;;;;;6274271;28;20063;-58
2023/10/26 12:28:08;;;;;;;9.85;3.10;;;20.00;62.20;;;;;;6281076;28;20020;-67
2023/10/26 12:31:10;;;;;;;7.38;2.75;;;20.00;62.80;;;;;;6273230;28;20059;-66
2023/10/26 12:34:10;;;;;;;8.18;3.05;;;20.00;62.70;;;;;;6286389;28;20040;-66
2023/10/26 12:37:11;;;;;;;400.48;16.80;;;20.00;61.80;;;;;;6282744;28;20021;-66
2023/10/26 12:40:12;;;;;;;127.28;7.10;;;20.00;62.50;;;;;;6271989;28;20502;-67
2023/10/26 12:43:12;;;;;;;456.35;23.70;;;20.10;62.40;;;;;;6279711;28;20551;-66
2023/10/26 12:46:13;;;;;;;295.13;11.95;;;20.10;62.40;;;;;;6279016;28;20442;-66
2023/10/26 12:49:13;;;;;;;215.38;9.60;;;20.10;62.80;;;;;;6283435;28;20505;-66
2023/10/26 12:52:14;;;;;;;156.98;7.65;;;20.20;63.20;;;;;;6266041;28;20510;-66
2023/10/26 12:55:15;;;;;;;119.70;7.78;;;20.30;62.60;;;;;;6279837;28;20021;-66
2023/10/26 12:58:16;;;;;;;85.78;5.05;;;20.30;62.50;;;;;;6277625;28;20025;-66
2023/10/26 13:01:17;;;;;;;92.07;6.55;;;20.30;62.50;;;;;;6269984;28;20590;-66
2023/10/26 13:04:18;;;;;;;94.63;5.97;;;20.20;62.30;;;;;;6280347;28;20035;-66
2023/10/26 13:07:21;;;;;;;61.08;5.47;;;20.20;62.60;;;;;;6271557;28;20666;-65
2023/10/26 13:10:21;;;;;;;94.75;6.60;;;20.20;62.80;;;;;;6272777;28;20028;-67
2023/10/26 13:13:22;;;;;;;65.20;4.97;;;20.20;63.30;;;;;;6279901;28;20111;-67
2023/10/26 13:16:23;;;;;;;63.83;6.18;;;20.10;63.30;;;;;;6271179;28;20483;-67
2023/10/26 13:19:24;;;;;;;41.47;5.15;;;20.10;62.90;;;;;;6273181;28;20391;-67
2023/10/26 13:22:25;;;;;;;47.28;4.80;;;20.10;62.40;;;;;;6274525;28;20029;-67
2023/10/26 13:25:26;;;;;;;36.65;4.90;;;20.00;62.10;;;;;;6277849;28;20033;-67
2023/10/26 13:28:27;;;;;;;32.05;5.25;;;20.00;61.70;;;;;;6277716;28;20774;-66
2023/10/26 13:31:28;;;;;;;17.30;4.70;;;20.00;61.30;;;;;;6268112;28;20044;-66
2023/10/26 13:34:28;;;;;;;17.55;4.65;;;20.00;60.20;;;;;;6273403;28;20078;-66
2023/10/26 13:37:29;;;;;;;26.23;4.35;;;20.00;60.30;;;;;;6278816;28;20024;-66
2023/10/26 13:40:30;;;;;;;24.98;4.13;;;20.00;60.20;;;;;;6278504;28;20104;-66
2023/10/26 13:43:30;;;;;;;17.65;4.18;;;20.00;60.40;;;;;;6277637;28;20503;-66
2023/10/26 13:46:32;;;;;;;20.60;3.70;;;20.00;60.40;;;;;;6276222;28;20012;-67
2023/10/26 13:49:32;;;;;;;18.77;3.63;;;20.00;60.60;;;;;;6280755;28;20039;-66
2023/10/26 13:52:33;;;;;;;15.45;3.90;;;20.00;60.70;;;;;;6273898;28;20029;-66
2023/10/26 13:55:35;;;;;;;16.05;3.60;;;20.10;61.00;;;;;;6281700;28;20028;-65
2023/10/26 13:58:36;;;;;;;17.88;4.45;;;20.10;61.30;;;;;;6277427;28;20109;-66
2023/10/26 14:01:36;;;;;;;20.13;3.50;;;20.10;61.10;;;;;;6283499;28;20437;-65
2023/10/26 14:04:37;;;;;;;13.93;3.60;;;20.10;61.30;;;;;;6278737;28;20029;-66
2023/10/26 14:07:38;;;;;;;14.85;3.42;;;20.10;61.30;;;;;;6279167;28;20062;-67
2023/10/26 14:10:40;;;;;;;25.25;4.00;;;20.10;61.30;;;;;;6270895;28;20049;-67
2023/10/26 14:13:42;;;;;;;40.47;4.47;;;20.20;62.00;;;;;;6265340;28;20128;-64
